Tariq Ibn Ziyad — 7TXO — position and weather

sailwx.info

Track history (hours):
 
Tides and Currents Weather Stations Pressure Air Temp Water Temp Dewpoint Dewpoint Depression Visibility Wind Speed Wind Dir Waves Ship Positions

Tariq Ibn Ziyad

Last reported at 2018-Jun-19 18:00 UTC. Time now 2018-Jun-19 18:21 UTC.
Position N 41°31' E 003°29'.

Length 153 m; draft 6 m.

Type: Passenger vessel. MMSI: 605246160.

Date/timePositionNaut miles runAvg speedWind from/ knotsBaromVisibWave heightAir tempDewpointWater temp
2018-Jun-19 18:00N 41°31' E 003°29'13320.5
2018-Jun-19 11:31N 43°16' E 005°19'013.8
2018-Jun-19 11:29N 43°16' E 005°20'2 4.1
2018-Jun-19 10:58N 43°18' E 005°22'0 0.0
2018-Jun-19 10:25N 43°18' E 005°22'0 0.0
2018-Jun-19 09:58N 43°18' E 005°22'0 0.0
2018-Jun-19 09:28N 43°18' E 005°22'0 0.0
2018-Jun-19 08:58N 43°18' E 005°22'0 0.0
2018-Jun-19 08:28N 43°18' E 005°22'0 0.0
2018-Jun-19 07:58N 43°18' E 005°22'0 0.0
2018-Jun-19 07:28N 43°18' E 005°22'0 0.0
2018-Jun-19 06:58N 43°18' E 005°22'0 0.0
2018-Jun-19 06:28N 43°18' E 005°22'0 0.0
2018-Jun-19 05:58N 43°18' E 005°22'0 0.0
2018-Jun-19 05:28N 43°18' E 005°22'0 0.0
2018-Jun-19 04:58N 43°18' E 005°22'0 0.0
2018-Jun-19 04:28N 43°18' E 005°22'0 0.0
2018-Jun-19 03:58N 43°18' E 005°22'0 0.0
2018-Jun-19 03:28N 43°18' E 005°22'0 0.0
2018-Jun-19 02:58N 43°18' E 005°22'0 0.0
2018-Jun-19 02:28N 43°18' E 005°22'0 0.0
2018-Jun-19 01:58N 43°18' E 005°22'0 0.0
2018-Jun-19 01:25N 43°18' E 005°22'0 0.0
2018-Jun-19 00:58N 43°18' E 005°22'0 0.0
2018-Jun-19 00:28N 43°18' E 005°22'0 0.0
2018-Jun-18 23:58N 43°18' E 005°22'0 0.0
2018-Jun-18 23:28N 43°18' E 005°22'0 0.0
2018-Jun-18 22:55N 43°18' E 005°22'0 0.0
2018-Jun-18 22:28N 43°18' E 005°22'0 0.0
2018-Jun-18 21:58N 43°18' E 005°22'0 0.0
2018-Jun-18 21:28N 43°18' E 005°22'0 0.0
2018-Jun-18 20:55N 43°18' E 005°22'0 0.0
2018-Jun-18 20:28N 43°18' E 005°22'0 0.0
2018-Jun-18 19:58N 43°18' E 005°22'0 0.0
2018-Jun-18 19:28N 43°18' E 005°22'0 0.0
2018-Jun-18 18:58N 43°18' E 005°22'0 0.0
2018-Jun-18 18:28N 43°18' E 005°22'0 0.0
2018-Jun-18 17:58N 43°18' E 005°22'0 0.0
2018-Jun-18 17:28N 43°18' E 005°22'0 0.0
2018-Jun-18 16:58N 43°18' E 005°22'0 0.0
2018-Jun-18 16:30N 43°18' E 005°22'0 0.2
2018-Jun-18 16:00N 43°18' E 005°22'32319.2
2018-Jun-17 23:13N 39°00' E 001°04'5020.6
2018-Jun-17 20:48N 38°14' E 000°40'721.2
2018-Jun-17 20:28N 38°08' E 000°36'3021.0
2018-Jun-17 19:01N 37°40' E 000°20'021.2
2018-Jun-17 19:01N 37°40' E 000°20'1121.0
2018-Jun-17 18:30N 37°30' E 000°15'1021.0
2018-Jun-17 18:00N 37°21' E 000°10'1020.8
2018-Jun-17 17:30N 37°11' E 000°05'1020.5
2018-Jun-17 17:01N 37°01' E 000°00'1020.6
2018-Jun-17 16:31N 36°52' W 000°05'2819.8
2018-Jun-17 15:07N 36°26' W 000°17'519.2
2018-Jun-17 14:51N 36°21' W 000°19'719.3
2018-Jun-17 14:30N 36°15' W 000°22'2919.9
2018-Jun-17 13:04N 35°48' W 000°35'119.9
2018-Jun-17 13:01N 35°47' W 000°35'4 1.0
2018-Jun-17 09:19N 35°51' W 000°33'14 9.7
2018-Jun-17 07:53N 35°56' W 000°49'3 6.2
2018-Jun-17 07:29N 35°56' W 000°46'918.6
2018-Jun-17 07:00N 35°49' W 000°39'7 0.8
2018-Jun-16 22:39N 35°43' W 000°39'0 0.0
2018-Jun-16 21:27N 35°43' W 000°39'0 0.0
2018-Jun-16 19:45N 35°43' W 000°39'0 0.0
2018-Jun-16 19:27N 35°43' W 000°39'0 0.0
2018-Jun-16 18:21N 35°43' W 000°39'0 0.0
2018-Jun-16 17:57N 35°43' W 000°39'0 0.0
2018-Jun-16 16:39N 35°43' W 000°39'0 0.0
2018-Jun-16 16:21N 35°43' W 000°39'0 0.0
2018-Jun-16 15:51N 35°43' W 000°39'0 0.0
2018-Jun-16 15:27N 35°43' W 000°39'0 0.0
2018-Jun-16 14:51N 35°43' W 000°39'0 0.0
2018-Jun-16 14:27N 35°43' W 000°39'0 0.0
2018-Jun-16 13:57N 35°43' W 000°39'0 0.0
2018-Jun-16 13:30N 35°43' W 000°39'0 0.0
2018-Jun-16 12:57N 35°43' W 000°39'0 0.0
2018-Jun-16 01:39N 35°43' W 000°39'0 0.0
2018-Jun-16 01:27N 35°43' W 000°39'0 0.0
2018-Jun-15 21:21N 35°43' W 000°39'0 0.0
2018-Jun-15 19:27N 35°43' W 000°39'0 0.0
2018-Jun-15 18:57N 35°43' W 000°39'0 0.0
2018-Jun-15 18:24N 35°43' W 000°39'0 0.0
2018-Jun-15 17:45N 35°43' W 000°39'0 0.0
2018-Jun-15 17:27N 35°43' W 000°39'0 0.0
2018-Jun-14 20:27N 35°43' W 000°39'77 4.6
2018-Jun-14 03:42N 36°56' W 000°10'720.4
2018-Jun-14 03:23N 37°02' W 000°08'2220.3
2018-Jun-14 02:17N 37°24' W 000°01'1320.0
2018-Jun-14 01:38N 37°36' E 000°04'40 2.2
2018-Jun-13 07:30N 38°12' W 000°20'1020.7
2018-Jun-13 07:00N 38°05' W 000°11'2118.7
2018-Jun-13 05:52N 37°43' W 000°07'720.4
2018-Jun-13 05:30N 37°36' W 000°08'1020.3
2018-Jun-13 05:00N 37°26' W 000°11'1020.4
2018-Jun-13 04:30N 37°16' W 000°13'1020.3
2018-Jun-13 04:00N 37°06' W 000°16'17 0.4
2018-Jun-11 09:00N 37°07' E 000°05'1020.0
2018-Jun-11 08:30N 37°16' E 000°10'1219.9
2018-Jun-11 07:53N 37°27' E 000°16'40620.2
2018-Jun-10 11:45N 43°07' E 005°06'520.2
2018-Jun-10 11:30N 43°12' E 005°10'917.9
2018-Jun-10 11:00N 43°17' E 005°20'2 0.1
2018-Jun-09 18:55N 43°18' E 005°22'2 4.4
2018-Jun-09 18:30N 43°17' E 005°20'815.4
2018-Jun-09 18:00N 43°10' E 005°15'  
Track history (hours):
 
Tides and Currents Weather Stations Pressure Air Temp Water Temp Dewpoint Dewpoint Depression Visibility Wind Speed Wind Dir Waves Ship Positions

Tariq Ibn Ziyad

Last reported at 2018-Jun-19 18:00 UTC. Time now 2018-Jun-19 18:21 UTC.
Position N 41°31' E 003°29'.

Length 153 m; draft 6 m.

Type: Passenger vessel. MMSI: 605246160.

Date/timePositionNaut miles runAvg speedWind from/ knotsBaromVisibWave heightAir tempDewpointWater temp
2018-Jun-19 18:00N 41°31' E 003°29'13320.5
2018-Jun-19 11:31N 43°16' E 005°19'013.8
2018-Jun-19 11:29N 43°16' E 005°20'2 4.1
2018-Jun-19 10:58N 43°18' E 005°22'0 0.0
2018-Jun-19 10:25N 43°18' E 005°22'0 0.0
2018-Jun-19 09:58N 43°18' E 005°22'0 0.0
2018-Jun-19 09:28N 43°18' E 005°22'0 0.0
2018-Jun-19 08:58N 43°18' E 005°22'0 0.0
2018-Jun-19 08:28N 43°18' E 005°22'0 0.0
2018-Jun-19 07:58N 43°18' E 005°22'0 0.0
2018-Jun-19 07:28N 43°18' E 005°22'0 0.0
2018-Jun-19 06:58N 43°18' E 005°22'0 0.0
2018-Jun-19 06:28N 43°18' E 005°22'0 0.0
2018-Jun-19 05:58N 43°18' E 005°22'0 0.0
2018-Jun-19 05:28N 43°18' E 005°22'0 0.0
2018-Jun-19 04:58N 43°18' E 005°22'0 0.0
2018-Jun-19 04:28N 43°18' E 005°22'0 0.0
2018-Jun-19 03:58N 43°18' E 005°22'0 0.0
2018-Jun-19 03:28N 43°18' E 005°22'0 0.0
2018-Jun-19 02:58N 43°18' E 005°22'0 0.0
2018-Jun-19 02:28N 43°18' E 005°22'0 0.0
2018-Jun-19 01:58N 43°18' E 005°22'0 0.0
2018-Jun-19 01:25N 43°18' E 005°22'0 0.0
2018-Jun-19 00:58N 43°18' E 005°22'0 0.0
2018-Jun-19 00:28N 43°18' E 005°22'0 0.0
2018-Jun-18 23:58N 43°18' E 005°22'0 0.0
2018-Jun-18 23:28N 43°18' E 005°22'0 0.0
2018-Jun-18 22:55N 43°18' E 005°22'0 0.0
2018-Jun-18 22:28N 43°18' E 005°22'0 0.0
2018-Jun-18 21:58N 43°18' E 005°22'0 0.0
2018-Jun-18 21:28N 43°18' E 005°22'0 0.0
2018-Jun-18 20:55N 43°18' E 005°22'0 0.0
2018-Jun-18 20:28N 43°18' E 005°22'0 0.0
2018-Jun-18 19:58N 43°18' E 005°22'0 0.0
2018-Jun-18 19:28N 43°18' E 005°22'0 0.0
2018-Jun-18 18:58N 43°18' E 005°22'0 0.0
2018-Jun-18 18:28N 43°18' E 005°22'0 0.0
2018-Jun-18 17:58N 43°18' E 005°22'0 0.0
2018-Jun-18 17:28N 43°18' E 005°22'0 0.0
2018-Jun-18 16:58N 43°18' E 005°22'0 0.0
2018-Jun-18 16:30N 43°18' E 005°22'0 0.2
2018-Jun-18 16:00N 43°18' E 005°22'32319.2
2018-Jun-17 23:13N 39°00' E 001°04'5020.6
2018-Jun-17 20:48N 38°14' E 000°40'721.2
2018-Jun-17 20:28N 38°08' E 000°36'3021.0
2018-Jun-17 19:01N 37°40' E 000°20'021.2
2018-Jun-17 19:01N 37°40' E 000°20'1121.0
2018-Jun-17 18:30N 37°30' E 000°15'1021.0
2018-Jun-17 18:00N 37°21' E 000°10'1020.8
2018-Jun-17 17:30N 37°11' E 000°05'1020.5
2018-Jun-17 17:01N 37°01' E 000°00'1020.6
2018-Jun-17 16:31N 36°52' W 000°05'2819.8
2018-Jun-17 15:07N 36°26' W 000°17'519.2
2018-Jun-17 14:51N 36°21' W 000°19'719.3
2018-Jun-17 14:30N 36°15' W 000°22'2919.9
2018-Jun-17 13:04N 35°48' W 000°35'119.9
2018-Jun-17 13:01N 35°47' W 000°35'4 1.0
2018-Jun-17 09:19N 35°51' W 000°33'14 9.7
2018-Jun-17 07:53N 35°56' W 000°49'3 6.2
2018-Jun-17 07:29N 35°56' W 000°46'918.6
2018-Jun-17 07:00N 35°49' W 000°39'7 0.8
2018-Jun-16 22:39N 35°43' W 000°39'0 0.0
2018-Jun-16 21:27N 35°43' W 000°39'0 0.0
2018-Jun-16 19:45N 35°43' W 000°39'0 0.0
2018-Jun-16 19:27N 35°43' W 000°39'0 0.0
2018-Jun-16 18:21N 35°43' W 000°39'0 0.0
2018-Jun-16 17:57N 35°43' W 000°39'0 0.0
2018-Jun-16 16:39N 35°43' W 000°39'0 0.0
2018-Jun-16 16:21N 35°43' W 000°39'0 0.0
2018-Jun-16 15:51N 35°43' W 000°39'0 0.0
2018-Jun-16 15:27N 35°43' W 000°39'0 0.0
2018-Jun-16 14:51N 35°43' W 000°39'0 0.0
2018-Jun-16 14:27N 35°43' W 000°39'0 0.0
2018-Jun-16 13:57N 35°43' W 000°39'0 0.0
2018-Jun-16 13:30N 35°43' W 000°39'0 0.0
2018-Jun-16 12:57N 35°43' W 000°39'0 0.0
2018-Jun-16 01:39N 35°43' W 000°39'0 0.0
2018-Jun-16 01:27N 35°43' W 000°39'0 0.0
2018-Jun-15 21:21N 35°43' W 000°39'0 0.0
2018-Jun-15 19:27N 35°43' W 000°39'0 0.0
2018-Jun-15 18:57N 35°43' W 000°39'0 0.0
2018-Jun-15 18:24N 35°43' W 000°39'0 0.0
2018-Jun-15 17:45N 35°43' W 000°39'0 0.0
2018-Jun-15 17:27N 35°43' W 000°39'0 0.0
2018-Jun-14 20:27N 35°43' W 000°39'77 4.6
2018-Jun-14 03:42N 36°56' W 000°10'720.4
2018-Jun-14 03:23N 37°02' W 000°08'2220.3
2018-Jun-14 02:17N 37°24' W 000°01'1320.0
2018-Jun-14 01:38N 37°36' E 000°04'40 2.2
2018-Jun-13 07:30N 38°12' W 000°20'1020.7
2018-Jun-13 07:00N 38°05' W 000°11'2118.7
2018-Jun-13 05:52N 37°43' W 000°07'720.4
2018-Jun-13 05:30N 37°36' W 000°08'1020.3
2018-Jun-13 05:00N 37°26' W 000°11'1020.4
2018-Jun-13 04:30N 37°16' W 000°13'1020.3
2018-Jun-13 04:00N 37°06' W 000°16'17 0.4
2018-Jun-11 09:00N 37°07' E 000°05'1020.0
2018-Jun-11 08:30N 37°16' E 000°10'1219.9
2018-Jun-11 07:53N 37°27' E 000°16'40620.2
2018-Jun-10 11:45N 43°07' E 005°06'520.2
2018-Jun-10 11:30N 43°12' E 005°10'917.9
2018-Jun-10 11:00N 43°17' E 005°20'2 0.1
2018-Jun-09 18:55N 43°18' E 005°22'2 4.4
2018-Jun-09 18:30N 43°17' E 005°20'815.4
2018-Jun-09 18:00N 43°10' E 005°15'  

Dump ship's entire track history